Time;durP1;ratioP1;P1;durP2;ratioP2;P2;SDS_P1;SDS_P2;PMS_P1;PMS_P2;Temp;Humidity;BMP_temperature;BMP_pressure;BME280_temperature;BME280_humidity;BME280_pressure;Samples;Min_cycle;Max_cycle;Signal;HPM_P1;HPM_P2
2022/10/27 00:01:56;;;;;;;3.03;2.10;;;10.60;99.90;;;;;;6140633;29;20275;-67
2022/10/27 00:05:01;;;;;;;4.50;2.10;;;10.60;99.90;;;;;;6140171;29;20298;-67
2022/10/27 00:08:07;;;;;;;2.03;2.03;;;10.60;99.90;;;;;;6140199;29;20307;-68
2022/10/27 00:11:12;;;;;;;2.08;1.98;;;10.60;99.90;;;;;;6127088;29;20440;-67
2022/10/27 00:14:18;;;;;;;2.05;1.95;;;10.50;99.90;;;;;;6115873;29;20295;-67
2022/10/27 00:17:24;;;;;;;2.28;2.22;;;10.60;99.90;;;;;;6116215;29;20295;-67
2022/10/27 00:20:29;;;;;;;2.15;2.08;;;10.70;99.90;;;;;;6116320;29;20272;-67
2022/10/27 00:23:34;;;;;;;2.42;2.20;;;10.70;99.90;;;;;;6116035;29;20479;-67
2022/10/27 00:26:39;;;;;;;9.70;2.45;;;10.70;99.90;;;;;;6116742;29;20284;-67
2022/10/27 00:29:44;;;;;;;5.05;2.42;;;10.70;99.90;;;;;;6116004;29;20315;-68
2022/10/27 00:32:51;;;;;;;5.10;2.60;;;10.70;99.90;;;;;;6116387;29;20287;-68
2022/10/27 00:35:56;;;;;;;2.60;2.40;;;10.80;99.90;;;;;;6116241;29;20295;-68
2022/10/27 00:39:01;;;;;;;2.58;2.30;;;10.80;99.90;;;;;;6115921;29;20626;-68
2022/10/27 00:42:06;;;;;;;2.55;2.45;;;10.80;99.90;;;;;;6116274;29;20272;-69
2022/10/27 00:45:11;;;;;;;2.53;2.38;;;10.80;99.90;;;;;;6116538;29;20272;-67
2022/10/27 00:48:17;;;;;;;3.58;2.22;;;10.80;99.90;;;;;;6115798;29;20304;-67
2022/10/27 00:51:22;;;;;;;4.13;2.17;;;10.90;99.90;;;;;;6116192;29;20271;-68
2022/10/27 00:54:29;;;;;;;4.53;2.33;;;10.70;99.90;;;;;;6115845;29;20612;-68
2022/10/27 00:57:35;;;;;;;2.67;2.20;;;10.70;99.90;;;;;;6116068;29;20295;-68
2022/10/27 01:00:42;;;;;;;3.92;2.30;;;10.70;99.90;;;;;;6116349;29;20284;-67
2022/10/27 01:03:48;;;;;;;4.00;2.10;;;10.70;99.90;;;;;;6115708;29;20323;-67
2022/10/27 01:06:53;;;;;;;2.85;1.92;;;10.80;99.90;;;;;;6109359;29;20296;-68
2022/10/27 01:09:58;;;;;;;3.67;2.20;;;10.80;99.90;;;;;;6115379;29;20587;-68
2022/10/27 01:13:03;;;;;;;2.30;2.10;;;10.80;99.90;;;;;;6115576;29;20292;-67
2022/10/27 01:16:21;;;;;;;2.55;2.20;;;10.90;99.90;;;;;;6116124;29;20295;-68
2022/10/27 01:20:09;;;;;;;5.38;2.22;;;11.00;99.90;;;;;;6115292;29;20299;-68
2022/10/27 01:23:24;;;;;;;4.72;2.20;;;10.90;99.90;;;;;;6116000;29;20292;-68
2022/10/27 01:26:49;;;;;;;4.00;2.15;;;11.00;99.90;;;;;;6119983;29;20272;-67
2022/10/27 01:30:07;;;;;;;2.92;2.38;;;11.00;99.90;;;;;;6119762;29;20299;-68
2022/10/27 01:33:23;;;;;;;4.40;2.28;;;11.10;99.90;;;;;;6119753;29;20323;-68
2022/10/27 01:36:35;;;;;;;2.78;2.13;;;11.00;99.90;;;;;;6120144;29;20287;-68
2022/10/27 01:39:46;;;;;;;3.47;2.00;;;11.10;99.90;;;;;;6120029;29;20311;-68
2022/10/27 01:42:56;;;;;;;5.13;2.17;;;11.10;99.90;;;;;;6119589;29;20299;-68
2022/10/27 01:46:03;;;;;;;3.03;2.30;;;11.10;99.90;;;;;;6120238;29;20279;-68
2022/10/27 01:49:09;;;;;;;3.30;2.17;;;11.10;99.90;;;;;;6119824;29;20296;-68
2022/10/27 01:52:42;;;;;;;2.53;2.13;;;11.10;99.90;;;;;;6119612;29;20299;-68
2022/10/27 01:56:00;;;;;;;5.55;2.47;;;11.10;99.90;;;;;;6119813;29;20272;-68
2022/10/27 01:59:19;;;;;;;2.20;2.10;;;11.10;99.90;;;;;;6119671;29;20336;-68
2022/10/27 02:02:32;;;;;;;2.80;2.60;;;11.20;99.90;;;;;;6118972;29;20292;-68
2022/10/27 02:05:46;;;;;;;4.82;2.42;;;11.10;99.90;;;;;;6119275;29;20295;-68
2022/10/27 02:08:55;;;;;;;2.47;2.33;;;11.20;99.90;;;;;;6118583;29;20367;-69
2022/10/27 02:12:02;;;;;;;3.38;2.00;;;11.10;99.90;;;;;;6136572;29;20547;-68
2022/10/27 02:15:20;;;;;;;3.33;2.08;;;11.20;99.90;;;;;;6142529;29;20278;-68
2022/10/27 02:18:28;;;;;;;3.30;2.10;;;11.10;99.90;;;;;;6142563;29;20299;-68
2022/10/27 02:21:35;;;;;;;4.72;2.17;;;11.10;99.90;;;;;;6143274;29;20275;-68
2022/10/27 02:24:40;;;;;;;4.68;1.70;;;11.20;99.90;;;;;;6142432;29;20299;-67
2022/10/27 02:27:48;;;;;;;2.33;1.77;;;11.10;99.90;;;;;;6142242;29;20291;-67
2022/10/27 02:30:54;;;;;;;3.67;2.10;;;11.10;99.90;;;;;;6142472;29;20279;-67
2022/10/27 02:33:59;;;;;;;2.17;2.00;;;11.10;99.90;;;;;;6142235;29;20424;-67
2022/10/27 02:37:08;;;;;;;4.13;2.15;;;11.10;99.90;;;;;;6140898;29;20286;-68
2022/10/27 02:40:13;;;;;;;5.45;1.73;;;11.10;99.90;;;;;;6142387;29;20271;-68
2022/10/27 02:43:18;;;;;;;2.63;2.30;;;11.10;99.90;;;;;;6141942;29;20547;-67
2022/10/27 02:46:22;;;;;;;2.92;2.35;;;11.20;99.90;;;;;;6142418;29;20276;-67
2022/10/27 02:49:27;;;;;;;6.22;2.50;;;11.10;99.90;;;;;;6141767;29;20308;-67
2022/10/27 02:52:33;;;;;;;2.97;2.28;;;11.10;99.90;;;;;;6141623;29;20302;-67
2022/10/27 02:55:38;;;;;;;3.95;2.50;;;11.10;99.90;;;;;;6142265;29;20280;-68
2022/10/27 02:58:43;;;;;;;2.80;2.60;;;11.00;99.90;;;;;;6141366;29;20311;-67
2022/10/27 03:01:48;;;;;;;6.18;2.42;;;11.10;99.90;;;;;;6141839;29;20303;-67
2022/10/27 03:04:53;;;;;;;2.95;2.22;;;11.10;99.90;;;;;;6121574;29;20308;-68
2022/10/27 03:07:59;;;;;;;2.58;2.30;;;11.10;99.90;;;;;;6126728;29;20271;-68
2022/10/27 03:11:04;;;;;;;5.60;1.98;;;11.10;99.90;;;;;;6137170;29;20295;-68
2022/10/27 03:14:10;;;;;;;2.50;2.30;;;11.10;99.90;;;;;;6117840;29;20300;-68
2022/10/27 03:17:15;;;;;;;2.42;2.15;;;11.00;99.90;;;;;;6118281;29;20303;-68
2022/10/27 03:20:20;;;;;;;3.75;2.10;;;10.90;99.90;;;;;;6121739;29;20306;-68
2022/10/27 03:23:26;;;;;;;2.70;2.50;;;10.90;99.90;;;;;;6140947;29;20600;-68
2022/10/27 03:26:31;;;;;;;2.28;2.10;;;11.00;99.90;;;;;;6141898;29;20274;-68
2022/10/27 03:29:36;;;;;;;2.95;1.83;;;11.00;99.90;;;;;;6141136;29;20478;-68
2022/10/27 03:32:41;;;;;;;3.28;2.28;;;10.90;99.90;;;;;;6141377;29;20276;-68
2022/10/27 03:35:45;;;;;;;3.50;1.90;;;10.90;99.90;;;;;;6140953;29;20294;-68
2022/10/27 03:38:53;;;;;;;2.00;2.00;;;10.90;99.90;;;;;;6119512;29;20608;-68
2022/10/27 03:41:58;;;;;;;2.25;1.90;;;11.00;99.90;;;;;;6117246;29;20276;-68
2022/10/27 03:45:03;;;;;;;5.80;2.03;;;11.00;99.90;;;;;;6117249;29;20470;-69
2022/10/27 03:48:12;;;;;;;2.58;2.22;;;11.00;99.90;;;;;;6116994;29;20282;-68
2022/10/27 03:51:17;;;;;;;3.38;2.10;;;11.00;99.90;;;;;;6117274;29;20276;-68
2022/10/27 03:54:23;;;;;;;2.33;2.10;;;11.00;99.90;;;;;;6116885;29;20307;-68
2022/10/27 03:57:28;;;;;;;2.45;2.05;;;11.00;99.90;;;;;;6117385;29;20571;-68
2022/10/27 04:00:33;;;;;;;3.55;2.10;;;11.00;99.90;;;;;;6116525;29;20312;-68
2022/10/27 04:03:38;;;;;;;4.05;2.05;;;11.00;99.90;;;;;;6100076;29;20292;-68
2022/10/27 04:06:43;;;;;;;5.65;2.25;;;10.90;99.90;;;;;;6117336;29;20272;-68
2022/10/27 04:09:49;;;;;;;10.95;1.90;;;10.90;99.90;;;;;;6116048;29;20307;-68
2022/10/27 04:12:56;;;;;;;4.35;2.13;;;10.80;99.90;;;;;;6133115;29;20350;-68
2022/10/27 04:16:01;;;;;;;2.10;2.00;;;10.90;99.90;;;;;;6140575;29;20454;-66
2022/10/27 04:19:06;;;;;;;1.92;1.88;;;10.90;99.90;;;;;;6140044;29;20486;-67
2022/10/27 04:22:12;;;;;;;5.03;2.10;;;10.80;99.90;;;;;;6140120;29;20275;-67
2022/10/27 04:25:18;;;;;;;3.65;1.98;;;10.80;99.90;;;;;;6139848;29;20312;-67
2022/10/27 04:28:39;;;;;;;3.60;1.73;;;10.80;99.90;;;;;;6130303;29;20299;-67
2022/10/27 04:31:44;;;;;;;2.80;2.00;;;10.80;99.90;;;;;;6139419;29;20454;-67
2022/10/27 04:34:49;;;;;;;2.72;2.20;;;10.90;99.90;;;;;;6139632;29;20446;-67
2022/10/27 04:37:56;;;;;;;4.55;2.17;;;10.80;99.90;;;;;;6140453;29;20275;-67
2022/10/27 04:41:02;;;;;;;2.47;2.10;;;10.90;99.90;;;;;;6139465;29;20280;-67
2022/10/27 04:44:08;;;;;;;3.08;2.25;;;10.90;99.90;;;;;;6139924;29;20311;-67
2022/10/27 04:47:13;;;;;;;4.78;2.58;;;10.80;99.90;;;;;;6140231;29;20271;-67
2022/10/27 04:50:18;;;;;;;2.47;2.20;;;10.80;99.90;;;;;;6139863;29;20292;-68
2022/10/27 04:53:23;;;;;;;4.28;2.25;;;10.80;99.90;;;;;;6139283;29;20295;-68
2022/10/27 04:56:29;;;;;;;8.00;2.30;;;10.80;99.90;;;;;;6140080;29;20276;-68
2022/10/27 04:59:34;;;;;;;4.15;2.58;;;10.70;99.90;;;;;;6142444;29;20610;-68
2022/10/27 05:02:38;;;;;;;3.75;2.40;;;10.60;99.90;;;;;;6144824;29;20271;-68
2022/10/27 05:05:43;;;;;;;5.50;2.65;;;10.60;99.90;;;;;;6144442;29;20302;-68
2022/10/27 05:08:48;;;;;;;2.80;2.60;;;10.60;99.90;;;;;;6144138;29;20311;-67
2022/10/27 05:11:55;;;;;;;4.15;2.63;;;10.60;99.90;;;;;;6132025;29;20259;-68
2022/10/27 05:14:59;;;;;;;2.70;2.50;;;10.60;99.90;;;;;;6120131;29;20300;-68
2022/10/27 05:18:05;;;;;;;3.15;2.58;;;10.60;99.90;;;;;;6120309;29;20275;-67
2022/10/27 05:21:13;;;;;;;6.63;2.90;;;10.60;99.90;;;;;;6120589;29;20295;-67
2022/10/27 05:24:18;;;;;;;4.10;3.15;;;10.60;99.90;;;;;;6120008;29;20308;-67
2022/10/27 05:27:24;;;;;;;11.70;3.33;;;10.60;99.90;;;;;;6093616;29;20275;-67
2022/10/27 05:30:29;;;;;;;5.53;3.35;;;10.60;99.90;;;;;;6096672;29;20521;-67
2022/10/27 05:33:34;;;;;;;3.25;3.05;;;10.60;99.90;;;;;;6096156;29;20292;-68
2022/10/27 05:36:39;;;;;;;3.65;3.20;;;10.60;99.90;;;;;;6097124;29;20272;-68
2022/10/27 05:39:47;;;;;;;8.57;3.17;;;10.70;99.90;;;;;;6096349;29;20308;-68
2022/10/27 05:42:55;;;;;;;3.88;3.28;;;10.70;99.90;;;;;;6096745;29;20569;-66
2022/10/27 05:46:00;;;;;;;7.95;2.95;;;10.60;99.90;;;;;;6095126;29;20560;-68
2022/10/27 05:49:06;;;;;;;3.88;3.20;;;10.50;99.90;;;;;;6096027;29;20304;-68
2022/10/27 05:52:12;;;;;;;3.00;2.88;;;10.50;99.90;;;;;;6096470;29;20272;-67
2022/10/27 05:55:18;;;;;;;11.90;2.90;;;10.50;99.90;;;;;;6095457;29;20507;-68
2022/10/27 05:58:24;;;;;;;8.10;2.97;;;10.50;99.90;;;;;;6095501;29;20475;-67
2022/10/27 06:01:29;;;;;;;4.70;3.15;;;10.50;99.90;;;;;;6096050;29;20301;-67
2022/10/27 06:04:34;;;;;;;7.35;2.88;;;10.40;99.90;;;;;;6079047;29;20480;-67
2022/10/27 06:07:39;;;;;;;3.17;2.88;;;10.50;99.90;;;;;;6096360;29;20394;-67
2022/10/27 06:10:45;;;;;;;6.85;3.05;;;10.50;99.90;;;;;;6097183;29;20308;-67
2022/10/27 06:13:51;;;;;;;4.68;2.92;;;10.60;99.90;;;;;;6118529;29;20303;-66
2022/10/27 06:16:56;;;;;;;5.22;3.08;;;10.50;99.90;;;;;;6119157;29;20272;-67
2022/10/27 06:20:01;;;;;;;4.50;2.95;;;10.50;99.90;;;;;;6118142;29;20303;-67
2022/10/27 06:23:06;;;;;;;5.90;3.08;;;10.50;99.90;;;;;;6118383;29;20271;-67
2022/10/27 06:26:12;;;;;;;3.08;2.83;;;10.40;99.90;;;;;;6118961;29;20276;-67
2022/10/27 06:29:18;;;;;;;7.00;3.50;;;10.50;99.90;;;;;;6118256;29;20367;-67
2022/10/27 06:32:23;;;;;;;6.07;3.30;;;10.50;99.90;;;;;;6118641;29;20275;-67
2022/10/27 06:35:29;;;;;;;5.40;2.92;;;10.60;99.90;;;;;;6118603;29;20486;-67
2022/10/27 06:38:34;;;;;;;9.98;3.25;;;10.60;99.90;;;;;;6118008;29;20319;-67
2022/10/27 06:41:39;;;;;;;6.22;3.40;;;10.70;99.90;;;;;;6119002;29;20477;-68
2022/10/27 06:44:45;;;;;;;3.17;2.95;;;10.70;99.90;;;;;;6118489;29;20299;-68
2022/10/27 06:47:57;;;;;;;9.07;3.75;;;10.80;99.90;;;;;;6118885;29;20276;-68
2022/10/27 06:51:02;;;;;;;4.47;3.00;;;10.80;99.90;;;;;;6117329;29;20280;-67
2022/10/27 06:54:07;;;;;;;7.68;3.17;;;10.80;99.90;;;;;;6118121;29;20484;-67
2022/10/27 06:57:12;;;;;;;3.70;2.92;;;10.90;99.90;;;;;;6118495;29;20285;-68
2022/10/27 07:00:19;;;;;;;4.25;2.78;;;10.90;99.90;;;;;;6117705;29;20478;-67
2022/10/27 07:03:24;;;;;;;6.43;2.75;;;10.80;99.90;;;;;;6117699;29;20654;-67
2022/10/27 07:06:29;;;;;;;3.33;2.53;;;11.00;99.90;;;;;;6118381;29;20272;-67
2022/10/27 07:09:34;;;;;;;3.60;3.15;;;11.00;99.90;;;;;;6117316;29;20308;-67
2022/10/27 07:12:39;;;;;;;5.80;2.42;;;11.10;99.90;;;;;;6132553;29;20284;-67
2022/10/27 07:15:45;;;;;;;8.98;3.08;;;11.10;99.90;;;;;;6140711;29;20299;-67
2022/10/27 07:18:50;;;;;;;8.40;3.25;;;11.00;99.90;;;;;;6140871;29;20287;-67
2022/10/27 07:21:55;;;;;;;6.28;2.88;;;11.00;99.90;;;;;;6141030;29;20299;-67
2022/10/27 07:25:00;;;;;;;3.22;2.90;;;11.00;99.90;;;;;;6140827;29;20559;-67
2022/10/27 07:28:06;;;;;;;9.48;2.95;;;11.10;99.90;;;;;;6140588;29;20275;-67
2022/10/27 07:31:12;;;;;;;7.03;3.67;;;11.10;99.90;;;;;;6141141;29;20450;-67
2022/10/27 07:34:17;;;;;;;3.80;3.33;;;11.20;99.90;;;;;;6140502;29;20477;-68
2022/10/27 07:37:22;;;;;;;6.10;3.63;;;11.20;99.90;;;;;;6141176;29;20275;-67
2022/10/27 07:40:26;;;;;;;6.93;3.75;;;11.20;99.90;;;;;;6140711;29;20611;-67
2022/10/27 07:43:38;;;;;;;4.10;3.72;;;11.20;99.90;;;;;;6140754;29;20470;-67
2022/10/27 07:46:44;;;;;;;4.75;3.47;;;11.20;99.90;;;;;;6141181;29;20547;-68
2022/10/27 07:49:49;;;;;;;10.27;4.25;;;11.20;99.90;;;;;;6140320;29;20303;-67
2022/10/27 07:52:54;;;;;;;10.07;4.57;;;11.40;99.90;;;;;;6140605;29;20315;-67
2022/10/27 07:55:59;;;;;;;6.57;3.72;;;11.40;99.90;;;;;;6140989;29;20560;-67
2022/10/27 07:59:04;;;;;;;6.97;4.68;;;11.50;99.90;;;;;;6139900;29;20300;-67
2022/10/27 08:02:12;;;;;;;8.02;4.93;;;11.60;99.90;;;;;;6140637;29;20295;-67
2022/10/27 08:05:17;;;;;;;10.23;5.50;;;11.60;99.90;;;;;;6140240;29;20316;-67
2022/10/27 08:08:22;;;;;;;8.95;6.07;;;11.70;99.90;;;;;;6139903;29;20294;-67
2022/10/27 08:11:28;;;;;;;10.32;5.97;;;11.80;99.90;;;;;;6131536;29;20271;-67
2022/10/27 08:14:33;;;;;;;11.13;5.63;;;11.80;99.90;;;;;;6116168;29;20311;-67
2022/10/27 08:17:39;;;;;;;12.52;6.68;;;11.80;99.90;;;;;;6117176;29;20280;-67
2022/10/27 08:20:46;;;;;;;10.77;6.20;;;11.90;99.90;;;;;;6116283;29;20299;-67
2022/10/27 08:23:51;;;;;;;17.38;7.25;;;11.90;99.90;;;;;;6115844;29;20292;-67
2022/10/27 08:26:56;;;;;;;11.65;7.05;;;11.90;99.90;;;;;;6116251;29;20271;-67
2022/10/27 08:30:00;;;;;;;9.90;6.68;;;12.10;99.90;;;;;;6115643;29;20299;-67
2022/10/27 08:33:08;;;;;;;10.73;6.85;;;12.10;99.90;;;;;;6115060;29;20276;-67
2022/10/27 08:36:14;;;;;;;14.68;6.82;;;12.00;99.90;;;;;;6116490;29;20276;-67
2022/10/27 08:39:19;;;;;;;15.05;6.60;;;12.10;99.90;;;;;;6115874;29;20296;-67
2022/10/27 08:42:38;;;;;;;17.35;6.78;;;12.20;99.90;;;;;;6116110;29;20291;-68
2022/10/27 08:45:49;;;;;;;6.78;5.97;;;12.20;99.90;;;;;;6115906;29;20296;-68
2022/10/27 08:49:01;;;;;;;16.98;7.22;;;12.20;99.90;;;;;;6115896;29;20295;-68
2022/10/27 08:52:15;;;;;;;10.32;6.80;;;12.30;99.90;;;;;;6116375;29;20275;-68
2022/10/27 08:55:23;;;;;;;13.20;6.13;;;12.40;99.90;;;;;;6115483;29;20472;-66
2022/10/27 08:58:36;;;;;;;12.13;6.18;;;12.50;99.90;;;;;;6115407;29;20603;-68
2022/10/27 09:01:47;;;;;;;7.55;5.82;;;12.50;99.90;;;;;;6116357;29;20292;-66
2022/10/27 09:05:12;;;;;;;12.75;6.03;;;12.60;99.90;;;;;;6115371;29;20620;-67
2022/10/27 09:08:26;;;;;;;14.07;6.43;;;12.70;99.90;;;;;;6115655;29;20299;-67
2022/10/27 09:11:40;;;;;;;13.77;6.47;;;12.70;99.90;;;;;;6121092;29;20271;-67
2022/10/27 09:15:09;;;;;;;12.38;6.45;;;12.80;99.90;;;;;;6138960;29;20299;-67
2022/10/27 09:18:23;;;;;;;9.82;6.63;;;12.80;99.90;;;;;;6138821;29;20314;-67
2022/10/27 09:21:32;;;;;;;14.48;6.75;;;12.80;99.90;;;;;;6139596;29;20295;-67
2022/10/27 09:24:38;;;;;;;10.48;5.65;;;12.80;99.90;;;;;;6139108;29;20470;-67
2022/10/27 09:27:44;;;;;;;10.10;6.00;;;12.90;99.90;;;;;;6139876;29;20275;-67
2022/10/27 09:30:51;;;;;;;12.63;6.00;;;12.90;99.90;;;;;;6138927;29;20599;-67
2022/10/27 09:34:00;;;;;;;12.77;5.70;;;12.90;99.90;;;;;;6138965;29;20298;-68
2022/10/27 09:37:12;;;;;;;7.05;5.90;;;12.80;99.90;;;;;;6139529;29;20276;-67
2022/10/27 09:40:19;;;;;;;12.88;5.18;;;12.90;99.90;;;;;;6139126;29;20603;-67
2022/10/27 09:43:24;;;;;;;9.02;5.55;;;12.90;99.90;;;;;;6138918;29;20300;-67
2022/10/27 09:46:30;;;;;;;10.10;5.68;;;12.90;99.90;;;;;;6142964;29;20444;-67
2022/10/27 09:49:39;;;;;;;8.73;4.95;;;12.90;99.90;;;;;;6143021;29;20306;-67
2022/10/27 09:52:45;;;;;;;9.57;5.38;;;12.90;99.90;;;;;;6143436;29;20572;-67
2022/10/27 09:55:52;;;;;;;9.68;5.20;;;12.80;99.90;;;;;;6142769;29;20297;-66
2022/10/27 09:59:01;;;;;;;11.98;5.45;;;12.80;99.90;;;;;;6142823;29;20290;-66
2022/10/27 10:02:19;;;;;;;11.20;5.30;;;12.80;99.90;;;;;;6143582;29;20448;-69
2022/10/27 10:05:26;;;;;;;11.15;4.95;;;12.90;99.90;;;;;;6142636;29;20291;-68
2022/10/27 10:08:35;;;;;;;8.15;5.10;;;12.90;99.90;;;;;;6142396;29;20290;-68
2022/10/27 10:11:40;;;;;;;10.98;5.10;;;12.90;99.90;;;;;;6132497;29;20268;-69
2022/10/27 10:14:45;;;;;;;8.07;5.32;;;13.00;99.90;;;;;;6119065;29;20299;-68
2022/10/27 10:17:56;;;;;;;9.68;4.97;;;13.00;99.90;;;;;;6119722;29;20276;-68
2022/10/27 10:21:04;;;;;;;9.20;5.05;;;13.00;99.90;;;;;;6118496;29;20284;-68
2022/10/27 10:24:17;;;;;;;6.90;4.60;;;13.00;99.90;;;;;;6118852;29;20312;-68
2022/10/27 10:27:28;;;;;;;12.10;4.97;;;13.00;99.90;;;;;;6119362;29;20276;-68
2022/10/27 10:30:37;;;;;;;9.38;5.22;;;13.00;99.90;;;;;;6118931;29;20295;-68
2022/10/27 10:33:45;;;;;;;7.57;4.70;;;13.00;99.90;;;;;;6118612;29;20300;-69
2022/10/27 10:36:50;;;;;;;11.75;4.95;;;13.10;99.90;;;;;;6102454;29;20279;-68
2022/10/27 10:40:25;;;;;;;9.40;4.93;;;13.20;99.90;;;;;;6118749;29;20303;-68
2022/10/27 10:43:30;;;;;;;8.10;4.32;;;13.30;99.90;;;;;;6116500;29;20300;-67
2022/10/27 10:46:36;;;;;;;9.20;4.50;;;13.40;99.90;;;;;;6118663;29;20504;-67
2022/10/27 10:49:46;;;;;;;10.70;4.40;;;13.50;99.90;;;;;;6118131;29;20299;-67
2022/10/27 10:52:54;;;;;;;12.65;4.47;;;13.60;99.90;;;;;;6101702;29;20462;-67
2022/10/27 10:56:05;;;;;;;15.40;4.43;;;13.60;99.90;;;;;;6117042;29;20268;-68
2022/10/27 10:59:14;;;;;;;7.32;4.32;;;13.70;99.90;;;;;;6117970;29;20295;-68
2022/10/27 11:02:27;;;;;;;15.45;5.43;;;13.70;99.90;;;;;;6118321;29;20304;-68
2022/10/27 11:05:34;;;;;;;10.40;4.05;;;13.70;99.90;;;;;;6117691;29;20303;-68
2022/10/27 11:08:43;;;;;;;7.57;3.78;;;13.80;99.90;;;;;;6117812;29;20300;-68
2022/10/27 11:11:49;;;;;;;7.57;3.80;;;13.80;99.90;;;;;;6126259;29;20267;-68
2022/10/27 11:14:54;;;;;;;7.80;3.58;;;13.90;99.90;;;;;;6141329;29;20302;-68
2022/10/27 11:18:04;;;;;;;15.88;4.10;;;13.90;99.90;;;;;;6140818;29;20271;-68
2022/10/27 11:21:17;;;;;;;8.68;4.00;;;13.90;99.90;;;;;;6141590;29;20284;-68
2022/10/27 11:24:26;;;;;;;10.82;3.70;;;13.90;99.90;;;;;;6141232;29;20331;-68
2022/10/27 11:27:39;;;;;;;9.73;4.55;;;14.00;99.90;;;;;;6141667;29;20271;-67
2022/10/27 11:30:50;;;;;;;11.57;3.95;;;14.00;99.90;;;;;;6140920;29;20464;-68
2022/10/27 11:34:02;;;;;;;8.77;3.92;;;14.10;99.90;;;;;;6140915;29;20586;-68
2022/10/27 11:37:11;;;;;;;11.38;3.88;;;14.10;99.90;;;;;;6141015;29;20267;-68
2022/10/27 11:40:21;;;;;;;10.30;4.20;;;14.10;99.90;;;;;;6140674;29;20380;-68
2022/10/27 11:43:33;;;;;;;10.60;3.65;;;14.10;99.90;;;;;;6140745;29;20291;-68
2022/10/27 11:46:43;;;;;;;11.32;4.13;;;14.10;99.90;;;;;;6141161;29;20275;-68
2022/10/27 11:49:53;;;;;;;13.48;3.30;;;14.20;99.90;;;;;;6140268;29;20300;-67
2022/10/27 11:52:59;;;;;;;17.55;3.25;;;14.30;99.90;;;;;;6140190;29;20279;-67
2022/10/27 11:56:30;;;;;;;17.52;3.53;;;14.30;99.90;;;;;;6140744;29;20568;-67
2022/10/27 11:59:48;;;;;;;6.82;2.80;;;14.30;99.90;;;;;;6140493;29;20302;-67
2022/10/27 12:03:30;;;;;;;4.20;2.70;;;14.30;99.90;;;;;;6140366;29;20295;-67
2022/10/27 12:06:47;;;;;;;12.48;3.33;;;14.30;99.90;;;;;;6131395;29;20283;-66
2022/10/27 12:10:08;;;;;;;9.27;3.20;;;14.30;99.90;;;;;;6140281;29;20299;-67
2022/10/27 12:13:22;;;;;;;10.60;3.38;;;14.30;99.90;;;;;;6116662;29;20308;-67
2022/10/27 12:16:35;;;;;;;12.68;3.50;;;14.30;99.90;;;;;;6116463;29;20275;-68
2022/10/27 12:19:40;;;;;;;12.70;3.45;;;14.30;99.90;;;;;;6116670;29;20320;-67
2022/10/27 12:22:51;;;;;;;11.93;3.63;;;14.30;99.90;;;;;;6116839;29;20276;-67
2022/10/27 12:26:03;;;;;;;8.00;3.20;;;14.30;99.90;;;;;;6116246;29;20271;-67
2022/10/27 12:29:08;;;;;;;6.05;3.22;;;14.40;99.90;;;;;;6116391;29;20295;-67
2022/10/27 12:32:20;;;;;;;19.33;4.05;;;14.40;99.90;;;;;;6116815;29;20275;-67
2022/10/27 12:35:30;;;;;;;13.02;3.50;;;14.30;99.90;;;;;;6116278;29;20603;-67
2022/10/27 12:38:43;;;;;;;13.93;3.72;;;14.40;99.90;;;;;;6115853;29;20295;-67
2022/10/27 12:41:55;;;;;;;8.82;3.30;;;14.40;99.90;;;;;;6116672;29;20268;-67
2022/10/27 12:45:09;;;;;;;13.55;3.42;;;14.40;99.90;;;;;;6115860;29;20315;-68
2022/10/27 12:48:24;;;;;;;14.57;3.25;;;14.40;99.90;;;;;;6116025;29;20295;-68
2022/10/27 12:51:35;;;;;;;18.40;3.20;;;14.40;99.90;;;;;;6116552;29;20292;-68
2022/10/27 12:55:00;;;;;;;8.35;3.42;;;14.40;99.90;;;;;;6116133;29;20299;-68
2022/10/27 12:58:09;;;;;;;8.93;3.55;;;14.50;99.90;;;;;;6116141;29;20272;-68
2022/10/27 13:01:25;;;;;;;10.85;3.33;;;14.50;99.90;;;;;;6116366;29;20271;-68
2022/10/27 13:05:06;;;;;;;6.28;3.33;;;14.60;99.90;;;;;;6115429;29;20312;-68
2022/10/27 13:08:49;;;;;;;11.55;3.42;;;14.50;99.90;;;;;;6089774;29;20446;-68
2022/10/27 13:12:11;;;;;;;14.80;3.30;;;14.60;99.90;;;;;;6090336;29;20276;-68
2022/10/27 13:15:51;;;;;;;15.98;3.20;;;14.60;99.90;;;;;;6115749;29;20592;-68
2022/10/27 13:19:21;;;;;;;10.27;3.60;;;14.60;99.90;;;;;;6107975;29;20297;-68
2022/10/27 13:22:34;;;;;;;9.07;3.35;;;14.60;99.90;;;;;;6120457;29;20271;-68
2022/10/27 13:25:43;;;;;;;10.77;3.47;;;14.60;99.90;;;;;;6119888;29;20307;-68
2022/10/27 13:28:53;;;;;;;6.82;3.67;;;14.50;99.90;;;;;;6120288;29;20299;-68
2022/10/27 13:32:32;;;;;;;11.77;4.20;;;14.50;99.90;;;;;;6120506;29;20276;-68
2022/10/27 13:35:38;;;;;;;7.88;3.42;;;14.50;99.90;;;;;;6118667;29;20300;-68
2022/10/27 13:38:44;;;;;;;11.75;3.30;;;14.50;99.90;;;;;;6119600;29;20300;-68
2022/10/27 13:41:51;;;;;;;13.02;4.10;;;14.50;99.90;;;;;;6120392;29;20275;-68
2022/10/27 13:44:55;;;;;;;12.60;3.80;;;14.50;99.90;;;;;;6118687;29;20379;-69
2022/10/27 13:48:34;;;;;;;12.18;3.55;;;14.50;99.90;;;;;;6118307;29;20291;-67
2022/10/27 13:51:42;;;;;;;10.98;3.20;;;14.50;99.90;;;;;;6119629;29;20271;-67
2022/10/27 13:55:34;;;;;;;9.80;3.92;;;14.40;99.90;;;;;;6119141;29;20299;-68
2022/10/27 13:58:54;;;;;;;9.63;3.38;;;14.40;99.90;;;;;;6119335;29;20476;-67
2022/10/27 14:02:01;;;;;;;10.18;3.15;;;14.40;99.90;;;;;;6119436;29;20268;-67
2022/10/27 14:05:29;;;;;;;9.57;3.30;;;14.50;99.90;;;;;;6118629;29;20304;-67
2022/10/27 14:08:35;;;;;;;8.18;3.20;;;14.40;99.90;;;;;;6119091;29;20292;-67
2022/10/27 14:11:47;;;;;;;10.90;3.63;;;14.30;99.90;;;;;;6131342;29;20299;-67
2022/10/27 14:14:56;;;;;;;7.47;3.13;;;14.30;99.90;;;;;;6111482;29;20304;-67
2022/10/27 14:18:01;;;;;;;9.10;3.20;;;14.40;99.90;;;;;;6118847;29;20276;-68
2022/10/27 14:21:17;;;;;;;10.48;4.00;;;14.30;99.90;;;;;;6119186;29;20272;-67
2022/10/27 14:24:25;;;;;;;10.60;3.72;;;14.30;99.90;;;;;;6118569;29;20592;-67
2022/10/27 14:27:31;;;;;;;9.43;3.40;;;14.20;99.90;;;;;;6119006;29;20276;-67
2022/10/27 14:30:36;;;;;;;14.30;3.90;;;14.20;99.90;;;;;;6117693;29;20304;-67
2022/10/27 14:33:41;;;;;;;10.65;3.72;;;14.20;99.90;;;;;;6118396;29;20296;-67
2022/10/27 14:36:46;;;;;;;8.80;3.42;;;14.20;99.90;;;;;;6119167;29;20276;-66
2022/10/27 14:39:53;;;;;;;9.68;3.60;;;14.20;99.90;;;;;;6118374;29;20304;-67
2022/10/27 14:42:59;;;;;;;8.75;3.38;;;14.20;99.90;;;;;;6117823;29;20472;-68
2022/10/27 14:46:05;;;;;;;8.02;3.53;;;14.10;99.90;;;;;;6118721;29;20291;-68
2022/10/27 14:49:19;;;;;;;12.52;3.50;;;14.00;99.90;;;;;;6118146;29;20299;-68
2022/10/27 14:52:37;;;;;;;12.00;3.85;;;14.00;99.90;;;;;;6118855;29;20268;-68
2022/10/27 14:55:45;;;;;;;11.10;3.85;;;14.00;99.90;;;;;;6118047;29;20304;-68
2022/10/27 14:58:57;;;;;;;9.25;3.58;;;14.00;99.90;;;;;;6118296;29;20295;-67
2022/10/27 15:02:02;;;;;;;6.38;3.50;;;14.00;99.90;;;;;;6118536;29;20279;-69
2022/10/27 15:05:20;;;;;;;8.50;3.65;;;13.90;99.90;;;;;;6117075;29;20307;-68
2022/10/27 15:08:27;;;;;;;9.77;3.72;;;13.90;99.90;;;;;;6117674;29;20288;-67
2022/10/27 15:11:31;;;;;;;12.63;3.50;;;13.90;99.90;;;;;;6127867;29;20291;-68
2022/10/27 15:14:38;;;;;;;8.90;3.50;;;13.90;99.90;;;;;;6141451;29;20303;-68
2022/10/27 15:17:44;;;;;;;11.77;3.75;;;13.90;99.90;;;;;;6141549;29;20555;-68
2022/10/27 15:20:50;;;;;;;17.30;4.32;;;13.80;99.90;;;;;;6140695;29;20298;-68
2022/10/27 15:24:01;;;;;;;9.13;4.20;;;13.80;99.90;;;;;;6140686;29;20291;-68
2022/10/27 15:27:06;;;;;;;8.30;3.67;;;13.80;99.90;;;;;;6141151;29;20291;-68
2022/10/27 15:30:18;;;;;;;10.80;3.80;;;13.70;99.90;;;;;;6140733;29;20307;-68
2022/10/27 15:33:37;;;;;;;9.68;4.35;;;13.70;99.90;;;;;;6141147;29;20300;-67
2022/10/27 15:36:42;;;;;;;15.88;6.20;;;13.60;99.90;;;;;;6141503;29;20275;-67
2022/10/27 15:39:47;;;;;;;17.98;5.38;;;13.70;99.90;;;;;;6140898;29;20299;-68
2022/10/27 15:42:52;;;;;;;14.18;5.00;;;13.70;99.90;;;;;;6140818;29;20271;-67
2022/10/27 15:46:09;;;;;;;5.55;4.10;;;13.60;99.90;;;;;;6140134;29;20587;-67
2022/10/27 15:49:24;;;;;;;5.53;4.40;;;13.70;99.90;;;;;;6140426;29;20300;-67
2022/10/27 15:52:29;;;;;;;4.95;3.90;;;13.60;99.90;;;;;;6140776;29;20271;-67
2022/10/27 15:55:38;;;;;;;6.93;4.47;;;13.50;99.90;;;;;;6140469;29;20302;-68
2022/10/27 15:58:43;;;;;;;7.75;4.35;;;13.50;99.90;;;;;;6139785;29;20318;-67
2022/10/27 16:01:51;;;;;;;11.32;4.40;;;13.50;99.90;;;;;;6140411;29;20275;-67
2022/10/27 16:04:56;;;;;;;12.50;4.72;;;13.40;99.90;;;;;;6133075;29;20299;-67
2022/10/27 16:08:21;;;;;;;5.90;4.00;;;13.40;99.90;;;;;;6139633;29;20454;-67
2022/10/27 16:11:32;;;;;;;11.95;5.13;;;13.40;99.90;;;;;;6131651;29;20304;-67
2022/10/27 16:14:36;;;;;;;13.18;4.28;;;13.40;99.90;;;;;;6116766;29;20296;-67
2022/10/27 16:17:45;;;;;;;12.63;4.40;;;13.30;99.90;;;;;;6117028;29;20276;-67
2022/10/27 16:20:50;;;;;;;13.52;4.70;;;13.40;99.90;;;;;;6108871;29;20603;-68